createdAt,value
2023-05-02T00:00:13.520Z,185.88
2023-05-02T00:01:13.576Z,194.20
2023-05-02T00:02:13.640Z,193.79
2023-05-02T00:03:13.812Z,196.77
2023-05-02T00:04:13.849Z,195.27
2023-05-02T00:05:13.768Z,192.15
2023-05-02T00:06:13.866Z,200.22
2023-05-02T00:07:13.886Z,203.49
2023-05-02T00:08:13.890Z,203.54
2023-05-02T00:09:13.977Z,198.41
2023-05-02T00:10:14.129Z,201.31
2023-05-02T00:11:14.060Z,197.11
2023-05-02T00:12:14.108Z,195.56
2023-05-02T00:13:14.165Z,199.98
2023-05-02T00:14:14.240Z,215.22
2023-05-02T00:15:14.302Z,224.67
2023-05-02T00:16:14.353Z,213.70
2023-05-02T00:17:14.464Z,210.21
2023-05-02T00:18:14.469Z,205.72
2023-05-02T00:19:14.413Z,204.99
2023-05-02T00:20:14.423Z,200.40
2023-05-02T00:21:14.434Z,191.58
2023-05-02T00:22:14.479Z,182.74
2023-05-02T00:23:14.524Z,178.82
2023-05-02T00:24:14.555Z,179.80
2023-05-02T00:25:14.555Z,187.25
2023-05-02T00:26:14.632Z,187.17
2023-05-02T00:27:14.647Z,183.57
2023-05-02T00:28:14.683Z,184.33
2023-05-02T00:29:14.803Z,185.88
2023-05-02T00:30:14.862Z,194.63
2023-05-02T00:31:14.945Z,201.16
2023-05-02T00:32:14.941Z,209.06
2023-05-02T00:33:15.201Z,204.27
2023-05-02T00:34:15.114Z,192.61
2023-05-02T00:35:15.119Z,189.24
2023-05-02T00:36:15.158Z,192.98
2023-05-02T00:37:15.208Z,195.83
2023-05-02T00:38:15.213Z,201.64
2023-05-02T00:39:15.237Z,206.56
2023-05-02T00:40:15.170Z,210.44
2023-05-02T00:41:15.209Z,210.19
2023-05-02T00:42:15.197Z,213.05
2023-05-02T00:43:15.211Z,208.65
2023-05-02T00:44:15.253Z,211.24
2023-05-02T00:45:15.258Z,216.89
2023-05-02T00:46:15.388Z,216.39
2023-05-02T00:47:15.336Z,220.83
2023-05-02T00:48:15.459Z,227.71
2023-05-02T00:49:15.444Z,229.68
2023-05-02T00:50:15.488Z,214.65
2023-05-02T00:51:15.557Z,208.25
2023-05-02T00:52:15.619Z,205.03
2023-05-02T00:53:15.693Z,204.79
2023-05-02T00:54:15.814Z,206.13
2023-05-02T00:55:15.795Z,204.95
2023-05-02T00:56:15.844Z,211.47
2023-05-02T00:57:15.902Z,219.33
2023-05-02T00:58:15.973Z,219.77
2023-05-02T00:59:16.081Z,216.26
2023-05-02T01:00:16.089Z,207.69
2023-05-02T01:01:16.170Z,214.62
2023-05-02T01:02:16.230Z,222.80
2023-05-02T01:03:16.283Z,231.91
2023-05-02T01:04:16.297Z,232.56
2023-05-02T01:05:16.209Z,234.01
2023-05-02T01:06:16.265Z,233.20
2023-05-02T01:07:16.319Z,237.60
2023-05-02T01:08:16.361Z,231.62
2023-05-02T01:09:16.387Z,223.84
2023-05-02T01:10:16.447Z,227.63
2023-05-02T01:11:16.509Z,229.03
2023-05-02T01:12:16.534Z,232.90
2023-05-02T01:13:16.766Z,235.55
2023-05-02T01:14:16.718Z,227.00
2023-05-02T01:15:16.707Z,214.53
2023-05-02T01:16:16.817Z,209.73
2023-05-02T01:17:16.822Z,209.15
2023-05-02T01:18:16.891Z,204.61
2023-05-02T01:19:16.929Z,195.77
2023-05-02T01:20:16.942Z,199.38
2023-05-02T01:21:16.972Z,204.11
2023-05-02T01:22:16.976Z,209.18
2023-05-02T01:23:17.070Z,205.08
2023-05-02T01:24:17.163Z,203.37
2023-05-02T01:25:17.196Z,197.45
2023-05-02T01:26:17.261Z,196.99
2023-05-02T01:27:17.301Z,200.22
2023-05-02T01:28:17.352Z,202.37
2023-05-02T01:29:17.455Z,209.43
2023-05-02T01:30:17.452Z,214.29
2023-05-02T01:31:17.491Z,223.95
2023-05-02T01:32:17.476Z,231.14
2023-05-02T01:33:17.462Z,227.67
2023-05-02T01:34:17.476Z,225.32
2023-05-02T01:35:17.481Z,223.00
2023-05-02T01:36:17.485Z,217.70
2023-05-02T01:37:17.506Z,216.35
2023-05-02T01:38:17.561Z,211.66
2023-05-02T01:39:17.575Z,203.87
2023-05-02T01:40:17.568Z,201.95
2023-05-02T01:41:17.586Z,211.31
2023-05-02T01:42:17.638Z,222.31
2023-05-02T01:43:17.699Z,219.03
2023-05-02T01:44:17.698Z,220.82
2023-05-02T01:45:17.759Z,213.86
2023-05-02T01:46:17.879Z,214.21
2023-05-02T01:47:17.914Z,217.38
2023-05-02T01:48:17.893Z,218.20
2023-05-02T01:49:17.880Z,222.79
2023-05-02T01:50:17.910Z,228.19
2023-05-02T01:51:17.905Z,227.24
2023-05-02T01:52:17.963Z,233.47
2023-05-02T01:53:17.974Z,225.25
2023-05-02T01:54:18.063Z,217.45
2023-05-02T01:55:18.007Z,217.35
2023-05-02T01:56:18.013Z,213.73
2023-05-02T01:57:17.994Z,219.13
2023-05-02T01:58:17.983Z,220.96
2023-05-02T01:59:17.960Z,225.40
2023-05-02T02:00:17.964Z,232.01
2023-05-02T02:01:17.996Z,228.51
2023-05-02T02:02:17.965Z,226.94
2023-05-02T02:03:18.056Z,231.38
2023-05-02T02:04:18.171Z,234.68
2023-05-02T02:05:17.961Z,230.32
2023-05-02T02:06:18.001Z,218.43
2023-05-02T02:07:17.995Z,218.44
2023-05-02T02:08:18.022Z,221.88
2023-05-02T02:09:18.026Z,214.07
2023-05-02T02:10:18.047Z,204.61
2023-05-02T02:11:17.989Z,196.48
2023-05-02T02:12:17.990Z,197.03
2023-05-02T02:13:18.020Z,192.45
2023-05-02T02:14:18.004Z,178.53
2023-05-02T02:15:18.323Z,173.15
2023-05-02T02:16:18.046Z,176.23
2023-05-02T02:17:17.995Z,172.15
2023-05-02T02:18:17.983Z,175.35
2023-05-02T02:19:17.986Z,183.41
2023-05-02T02:20:17.997Z,193.03
2023-05-02T02:21:18.015Z,192.20
2023-05-02T02:22:18.001Z,196.76
2023-05-02T02:23:18.006Z,197.52
2023-05-02T02:24:18.007Z,199.49
2023-05-02T02:25:18.033Z,208.84
2023-05-02T02:26:18.046Z,207.61
2023-05-02T02:27:18.039Z,212.69
2023-05-02T02:28:18.050Z,219.84
2023-05-02T02:29:18.100Z,229.33
2023-05-02T02:30:18.074Z,239.78
2023-05-02T02:31:18.105Z,250.47
2023-05-02T02:32:18.128Z,250.00
2023-05-02T02:33:18.083Z,250.77
2023-05-02T02:34:18.186Z,246.89
2023-05-02T02:35:18.154Z,240.28
2023-05-02T02:36:18.196Z,235.59
2023-05-02T02:37:18.225Z,227.89
2023-05-02T02:38:18.196Z,231.66
2023-05-02T02:39:18.194Z,235.53
2023-05-02T02:40:18.174Z,232.37
2023-05-02T02:41:18.218Z,230.70
2023-05-02T02:42:18.211Z,229.66
2023-05-02T02:43:18.153Z,229.30
2023-05-02T02:44:18.243Z,231.95
2023-05-02T02:45:18.198Z,233.55
2023-05-02T02:46:18.214Z,234.17
2023-05-02T02:47:18.203Z,238.38
2023-05-02T02:48:18.295Z,236.67
2023-05-02T02:49:18.225Z,239.52
2023-05-02T02:50:18.213Z,240.04
2023-05-02T02:51:18.287Z,236.68
2023-05-02T02:52:18.260Z,237.07
2023-05-02T02:53:18.232Z,235.62
2023-05-02T02:54:26.454Z,244.75
2023-05-02T02:55:19.262Z,244.93
2023-05-02T02:56:18.236Z,245.53
2023-05-02T02:57:18.278Z,245.96
2023-05-02T02:58:18.239Z,238.86
2023-05-02T02:59:18.226Z,232.97
2023-05-02T03:00:18.212Z,228.36
2023-05-02T03:01:18.267Z,234.55
2023-05-02T03:02:18.178Z,235.41
2023-05-02T03:03:18.270Z,240.17
2023-05-02T03:04:18.255Z,244.31
2023-05-02T03:05:18.202Z,244.87
2023-05-02T03:06:18.186Z,244.40
2023-05-02T03:07:18.158Z,248.11
2023-05-02T03:08:18.189Z,243.88
2023-05-02T03:09:18.167Z,238.31
2023-05-02T03:10:18.128Z,241.80
2023-05-02T03:11:18.129Z,239.33
2023-05-02T03:12:18.136Z,235.76
2023-05-02T03:13:18.114Z,229.86
2023-05-02T03:14:18.125Z,226.91
2023-05-02T03:15:18.164Z,231.20
2023-05-02T03:16:18.241Z,234.50
2023-05-02T03:17:18.189Z,236.83
2023-05-02T03:18:18.298Z,236.18
2023-05-02T03:19:18.265Z,232.15
2023-05-02T03:20:18.271Z,229.48
2023-05-02T03:21:18.259Z,221.80
2023-05-02T03:22:18.268Z,210.42
2023-05-02T03:23:18.289Z,208.88
2023-05-02T03:24:19.198Z,205.52
2023-05-02T03:25:18.291Z,204.86
2023-05-02T03:26:18.340Z,203.13
2023-05-02T03:27:18.364Z,201.18
2023-05-02T03:28:18.356Z,195.03
2023-05-02T03:29:18.419Z,192.60
2023-05-02T03:30:18.381Z,191.14
2023-05-02T03:31:18.455Z,186.34
2023-05-02T03:32:18.448Z,180.93
2023-05-02T03:33:18.443Z,179.46
2023-05-02T03:34:18.452Z,179.83
2023-05-02T03:35:18.519Z,179.99
2023-05-02T03:36:18.496Z,174.25
2023-05-02T03:37:18.518Z,170.80
2023-05-02T03:38:18.516Z,164.96
2023-05-02T03:39:18.546Z,163.87
2023-05-02T03:40:18.532Z,169.46
2023-05-02T03:41:18.599Z,169.01
2023-05-02T03:42:18.588Z,176.98
2023-05-02T03:43:18.626Z,186.83
2023-05-02T03:44:18.653Z,187.40
2023-05-02T03:45:18.714Z,186.78
2023-05-02T03:46:18.689Z,180.35
2023-05-02T03:47:18.686Z,176.53
2023-05-02T03:48:18.764Z,172.24
2023-05-02T03:49:18.802Z,173.50
2023-05-02T03:50:18.751Z,176.33
2023-05-02T03:51:18.815Z,180.07
2023-05-02T03:52:18.861Z,185.24
2023-05-02T03:53:18.924Z,182.67
2023-05-02T03:54:18.932Z,185.10
2023-05-02T03:55:18.952Z,185.15
2023-05-02T03:56:19.031Z,187.58
2023-05-02T03:57:19.063Z,182.95
2023-05-02T03:58:19.035Z,181.51
2023-05-02T03:59:19.151Z,186.25
2023-05-02T04:00:19.125Z,201.99
2023-05-02T04:01:19.172Z,212.50
2023-05-02T04:02:19.269Z,210.50
2023-05-02T04:03:19.669Z,208.23
2023-05-02T04:04:19.431Z,202.32
2023-05-02T04:05:19.324Z,198.40
2023-05-02T04:06:19.446Z,203.58
2023-05-02T04:07:19.615Z,208.67
2023-05-02T04:08:19.470Z,212.93
2023-05-02T04:09:19.492Z,220.45
2023-05-02T04:10:19.547Z,226.45
2023-05-02T04:11:19.643Z,226.66
2023-05-02T04:12:19.631Z,239.20
2023-05-02T04:13:19.672Z,242.24
2023-05-02T04:14:19.726Z,234.07
2023-05-02T04:15:19.822Z,218.25
2023-05-02T04:16:19.895Z,197.72
2023-05-02T04:17:19.863Z,197.15
2023-05-02T04:18:19.869Z,194.54
2023-05-02T04:19:19.937Z,195.61
2023-05-02T04:20:19.964Z,199.62
2023-05-02T04:21:19.985Z,196.14
2023-05-02T04:22:20.014Z,207.47
2023-05-02T04:23:20.069Z,219.61
2023-05-02T04:24:20.128Z,222.25
2023-05-02T04:25:20.118Z,219.39
2023-05-02T04:26:20.228Z,214.17
2023-05-02T04:27:20.177Z,220.26
2023-05-02T04:28:20.242Z,211.62
2023-05-02T04:29:20.292Z,219.78
2023-05-02T04:30:20.364Z,231.78
2023-05-02T04:31:20.537Z,239.81
2023-05-02T04:32:20.418Z,239.35
2023-05-02T04:33:20.486Z,246.50
2023-05-02T04:34:20.475Z,253.51
2023-05-02T04:35:20.555Z,245.89
2023-05-02T04:36:20.577Z,243.21
2023-05-02T04:37:21.193Z,213.08
2023-05-02T04:38:20.636Z,191.54
2023-05-02T04:39:20.658Z,197.36
2023-05-02T04:40:20.708Z,207.44
2023-05-02T04:41:20.719Z,211.27
2023-05-02T04:42:20.778Z,211.20
2023-05-02T04:43:21.830Z,217.88
2023-05-02T04:44:20.824Z,199.31
2023-05-02T04:45:20.848Z,201.10
2023-05-02T04:46:21.150Z,195.46
2023-05-02T04:47:20.815Z,184.82
2023-05-02T04:48:20.761Z,186.21
2023-05-02T04:49:20.787Z,189.20
2023-05-02T04:50:20.804Z,187.92
2023-05-02T04:51:20.771Z,179.88
2023-05-02T04:52:20.778Z,179.26
2023-05-02T04:53:20.739Z,163.36
2023-05-02T04:54:20.926Z,151.41
2023-05-02T04:55:20.838Z,156.79
2023-05-02T04:56:20.737Z,155.39
2023-05-02T04:57:22.612Z,166.97
2023-05-02T04:58:20.869Z,167.41
2023-05-02T04:59:20.821Z,169.46
2023-05-02T05:01:47.934Z,25.00
2023-05-02T05:02:40.393Z,25.00
2023-05-02T05:03:40.417Z,25.00
2023-05-02T05:04:40.281Z,25.00
2023-05-02T05:05:40.350Z,25.00
2023-05-02T05:06:40.295Z,25.00
2023-05-02T05:07:40.263Z,27.79
2023-05-02T05:08:40.206Z,43.53
2023-05-02T05:09:40.282Z,42.89
2023-05-02T05:10:40.191Z,26.91
2023-05-02T05:11:40.534Z,46.60
2023-05-02T05:12:40.222Z,27.98
2023-05-02T05:13:40.202Z,47.00
2023-05-02T05:14:40.283Z,14.21
2023-05-02T05:15:40.198Z,26.83
2023-05-02T05:16:40.604Z,47.94
2023-05-02T05:17:40.624Z,56.53
2023-05-02T05:18:40.273Z,73.19
2023-05-02T05:19:40.244Z,133.70
2023-05-02T05:20:40.140Z,158.93
2023-05-02T05:21:40.160Z,153.02
2023-05-02T05:22:40.158Z,142.55
2023-05-02T05:23:40.347Z,153.48
2023-05-02T05:24:40.169Z,172.27
2023-05-02T05:25:40.149Z,195.46
2023-05-02T05:26:40.123Z,187.61
2023-05-02T05:27:40.112Z,193.79
2023-05-02T05:28:40.165Z,191.00
2023-05-02T05:29:40.172Z,182.87
2023-05-02T05:30:40.475Z,209.55
2023-05-02T05:31:40.441Z,283.86
2023-05-02T05:32:40.080Z,324.08
2023-05-02T05:33:40.155Z,345.07
2023-05-02T05:34:40.072Z,339.45
2023-05-02T05:35:40.167Z,332.67
2023-05-02T05:36:40.206Z,333.47
2023-05-02T05:37:40.294Z,327.91
2023-05-02T05:38:40.264Z,326.73
2023-05-02T05:39:40.534Z,320.66
2023-05-02T05:40:40.387Z,290.91
2023-05-02T05:41:40.328Z,231.11
2023-05-02T05:42:40.419Z,195.85
2023-05-02T05:43:40.410Z,184.61
2023-05-02T05:44:40.581Z,192.64
2023-05-02T05:45:40.524Z,201.88
2023-05-02T05:48:00.428Z,25.00
2023-05-02T05:49:00.205Z,25.00
2023-05-02T05:50:00.463Z,25.00
2023-05-02T05:51:00.172Z,25.00
2023-05-02T05:52:00.261Z,25.00
2023-05-02T05:53:00.164Z,0.00
2023-05-02T05:54:00.213Z,0.00
2023-05-02T05:55:00.155Z,25.85
2023-05-02T05:56:00.118Z,50.80
2023-05-02T05:57:00.137Z,72.98
2023-05-02T05:58:00.183Z,81.86
2023-05-02T05:59:00.099Z,72.88
2023-05-02T06:00:01.943Z,90.91
2023-05-02T06:01:00.109Z,118.76
2023-05-02T06:02:00.298Z,150.03
2023-05-02T06:03:00.305Z,166.38
2023-05-02T06:04:00.246Z,126.62
2023-05-02T06:05:00.332Z,92.95
2023-05-02T06:06:00.443Z,77.90
2023-05-02T06:07:00.338Z,60.36
2023-05-02T06:08:00.349Z,59.40
2023-05-02T06:09:00.409Z,21.98
2023-05-02T06:10:00.699Z,28.26
2023-05-02T06:11:00.556Z,44.10
2023-05-02T06:12:00.493Z,63.86
2023-05-02T06:13:00.538Z,102.11
2023-05-02T06:14:00.584Z,138.21
2023-05-02T06:15:00.736Z,179.60
2023-05-02T06:16:00.696Z,205.23
2023-05-02T06:17:00.756Z,224.68
2023-05-02T06:18:00.849Z,222.13
2023-05-02T06:19:00.778Z,179.34
2023-05-02T06:20:01.673Z,141.25
2023-05-02T06:21:00.865Z,123.91
2023-05-02T06:22:01.805Z,122.09
2023-05-02T06:23:00.976Z,135.14
2023-05-02T06:24:00.944Z,116.81
2023-05-02T06:25:01.010Z,73.52
2023-05-02T06:26:01.012Z,47.70
2023-05-02T06:27:01.108Z,26.46
2023-05-02T06:28:01.113Z,35.53
2023-05-02T06:29:01.120Z,31.39
2023-05-02T06:30:01.449Z,25.00
2023-05-02T06:31:01.387Z,24.73
2023-05-02T06:32:01.350Z,32.48
2023-05-02T06:33:01.334Z,47.77
2023-05-02T06:34:01.374Z,10.72
2023-05-02T06:35:01.407Z,10.57
2023-05-02T06:36:02.486Z,28.57
2023-05-02T06:37:01.498Z,29.68
2023-05-02T06:38:01.483Z,45.54
2023-05-02T06:39:02.127Z,62.13
2023-05-02T06:40:01.862Z,51.37
2023-05-02T06:41:01.527Z,63.28
2023-05-02T06:42:01.637Z,75.04
2023-05-02T06:43:01.595Z,65.31
2023-05-02T06:44:01.662Z,105.20
2023-05-02T06:45:01.844Z,118.38
2023-05-02T06:46:01.675Z,110.12
2023-05-02T06:47:01.890Z,115.82
2023-05-02T06:48:01.781Z,102.40
2023-05-02T06:49:01.967Z,78.92
2023-05-02T06:50:02.181Z,52.66
2023-05-02T06:51:01.915Z,68.16
2023-05-02T06:52:01.941Z,60.51
2023-05-02T06:53:02.015Z,116.94
2023-05-02T06:54:02.008Z,135.01
2023-05-02T06:55:02.335Z,115.78
2023-05-02T06:56:02.016Z,118.09
2023-05-02T06:57:02.190Z,113.06
2023-05-02T06:58:02.217Z,104.33
2023-05-02T06:59:02.135Z,102.16
2023-05-02T07:00:02.375Z,60.05
2023-05-02T07:01:02.190Z,59.49
2023-05-02T07:02:05.066Z,48.78
2023-05-02T07:03:02.211Z,55.54
2023-05-02T07:04:02.261Z,52.57
2023-05-02T07:05:02.082Z,63.54
2023-05-02T07:06:03.670Z,89.35
2023-05-02T07:07:02.124Z,81.61
2023-05-02T07:08:02.126Z,97.94
2023-05-02T07:09:02.076Z,111.20
2023-05-02T07:10:02.514Z,175.33
2023-05-02T07:11:02.121Z,181.34
2023-05-02T07:12:06.611Z,184.24
2023-05-02T07:13:04.787Z,184.62
2023-05-02T07:14:02.051Z,188.47
2023-05-02T07:15:02.358Z,200.10
2023-05-02T07:16:02.070Z,204.44
2023-05-02T07:17:02.192Z,137.91
2023-05-02T07:18:02.188Z,113.04
2023-05-02T07:19:02.094Z,111.12
2023-05-02T07:20:02.596Z,106.34
2023-05-02T07:21:02.006Z,120.01
2023-05-02T07:22:02.006Z,142.27
2023-05-02T07:23:02.136Z,189.70
2023-05-02T07:24:02.027Z,168.60
2023-05-02T07:25:02.317Z,153.71
2023-05-02T07:26:03.196Z,145.17
2023-05-02T07:27:02.016Z,112.39
2023-05-02T07:28:02.033Z,134.95
2023-05-02T07:29:02.815Z,113.09
2023-05-02T07:30:02.531Z,105.97
2023-05-02T07:31:01.981Z,111.55
2023-05-02T07:32:02.067Z,102.68
2023-05-02T07:33:01.983Z,109.04
2023-05-02T07:34:01.998Z,105.65
2023-05-02T07:35:02.009Z,64.56
2023-05-02T07:36:02.406Z,87.92
2023-05-02T07:37:01.906Z,125.62
2023-05-02T07:38:02.030Z,172.23
2023-05-02T07:39:02.024Z,167.48
2023-05-02T07:40:02.513Z,131.29
2023-05-02T07:41:02.333Z,106.49
2023-05-02T07:42:02.153Z,54.27
2023-05-02T07:43:02.152Z,10.99
2023-05-02T07:44:02.137Z,25.46
2023-05-02T07:45:02.167Z,4.64
2023-05-02T07:46:02.281Z,0.00
2023-05-02T07:47:02.171Z,0.00
2023-05-02T07:48:02.333Z,58.87
2023-05-02T07:49:02.261Z,30.54
2023-05-02T07:50:02.576Z,27.97
2023-05-02T07:51:02.301Z,39.79
2023-05-02T07:52:02.214Z,0.00
2023-05-02T07:53:02.212Z,18.85
2023-05-02T07:54:02.219Z,20.16
2023-05-02T07:55:02.181Z,20.28
2023-05-02T07:56:02.327Z,0.00
2023-05-02T07:57:02.346Z,48.23
2023-05-02T07:58:02.209Z,105.73
2023-05-02T07:59:03.652Z,49.79
2023-05-02T08:00:02.823Z,81.92
2023-05-02T08:01:02.204Z,159.67
2023-05-02T08:02:02.194Z,152.85
2023-05-02T08:03:02.275Z,76.52
2023-05-02T08:04:02.483Z,78.32
2023-05-02T08:05:02.238Z,127.37
2023-05-02T08:06:02.344Z,164.75
2023-05-02T08:07:02.159Z,175.10
2023-05-02T08:08:02.277Z,181.98
2023-05-02T08:09:02.137Z,177.90
2023-05-02T08:10:02.456Z,186.42
2023-05-02T08:11:02.277Z,151.41
2023-05-02T08:12:02.160Z,81.22
2023-05-02T08:13:02.175Z,90.71
2023-05-02T08:14:02.108Z,110.77
2023-05-02T08:15:02.069Z,148.25
2023-05-02T08:16:02.863Z,77.62
2023-05-02T08:17:02.801Z,35.43
2023-05-02T08:18:02.125Z,86.67
2023-05-02T08:19:02.089Z,145.34
2023-05-02T08:20:02.370Z,214.13
2023-05-02T08:21:02.279Z,251.44
2023-05-02T08:22:02.114Z,232.56
2023-05-02T08:23:02.084Z,193.38
2023-05-02T08:24:02.572Z,213.23
2023-05-02T08:25:01.996Z,217.30
2023-05-02T08:26:02.060Z,100.81
2023-05-02T08:27:02.001Z,26.57
2023-05-02T08:28:02.038Z,27.17
2023-05-02T08:29:01.979Z,38.04
2023-05-02T08:30:02.046Z,29.08
2023-05-02T08:31:01.975Z,56.88
2023-05-02T08:32:02.024Z,101.66
2023-05-02T08:33:02.134Z,83.68
2023-05-02T08:34:02.006Z,105.10
2023-05-02T08:35:02.023Z,107.28
2023-05-02T08:36:02.429Z,114.15
2023-05-02T08:37:02.016Z,124.67
2023-05-02T08:38:01.945Z,122.84
2023-05-02T08:39:02.747Z,100.02
2023-05-02T08:40:02.502Z,65.13
2023-05-02T08:41:02.302Z,25.00
2023-05-02T08:42:01.946Z,25.95
2023-05-02T08:43:01.938Z,30.64
2023-05-02T08:44:01.982Z,44.91
2023-05-02T08:45:02.062Z,0.00
2023-05-02T08:46:03.816Z,0.00
2023-05-02T08:47:02.152Z,0.00
2023-05-02T08:48:02.137Z,2.71
2023-05-02T08:49:02.127Z,0.00
2023-05-02T08:50:02.667Z,2.40
2023-05-02T08:51:02.319Z,0.85
2023-05-02T08:52:02.339Z,5.44
2023-05-02T08:53:02.361Z,35.02
2023-05-02T08:54:02.431Z,32.13
2023-05-02T08:55:02.749Z,33.45
2023-05-02T08:56:02.816Z,25.74
2023-05-02T08:57:02.512Z,27.34
2023-05-02T08:58:02.515Z,10.29
2023-05-02T08:59:02.533Z,28.93
2023-05-02T09:00:02.573Z,37.92
2023-05-02T09:01:02.589Z,47.45
2023-05-02T09:02:02.590Z,44.69
2023-05-02T09:03:02.619Z,55.23
2023-05-02T09:04:02.620Z,70.65
2023-05-02T09:05:02.786Z,66.70
2023-05-02T09:06:02.703Z,76.42
2023-05-02T09:07:02.580Z,55.02
2023-05-02T09:08:03.169Z,50.53
2023-05-02T09:09:02.591Z,28.48
2023-05-02T09:10:02.650Z,30.14
2023-05-02T09:11:02.651Z,44.79
2023-05-02T09:12:02.677Z,57.08
2023-05-02T09:13:02.696Z,56.49
2023-05-02T09:14:02.729Z,40.47
2023-05-02T09:15:02.746Z,42.70
2023-05-02T09:16:03.060Z,53.79
2023-05-02T09:17:02.866Z,37.98
2023-05-02T09:18:02.844Z,27.28
2023-05-02T09:19:02.827Z,28.96
2023-05-02T09:20:02.930Z,25.86
2023-05-02T09:21:03.338Z,30.38
2023-05-02T09:22:02.812Z,48.95
2023-05-02T09:23:02.835Z,70.58
2023-05-02T09:24:03.869Z,68.40
2023-05-02T09:25:02.902Z,71.41
2023-05-02T09:26:03.298Z,80.23
2023-05-02T09:27:03.222Z,76.66
2023-05-02T09:28:02.942Z,88.29
2023-05-02T09:29:02.943Z,99.94
2023-05-02T09:30:03.072Z,91.32
2023-05-02T09:31:04.824Z,75.06
2023-05-02T09:32:03.094Z,44.50
2023-05-02T09:33:03.037Z,63.86
2023-05-02T09:34:03.102Z,78.18
2023-05-02T09:35:03.016Z,84.15
2023-05-02T09:36:06.934Z,87.83
2023-05-02T09:37:03.087Z,88.16
2023-05-02T09:38:03.201Z,62.48
2023-05-02T09:39:02.947Z,76.30
2023-05-02T09:40:03.067Z,67.54
2023-05-02T09:41:03.309Z,46.90
2023-05-02T09:42:03.327Z,44.05
2023-05-02T09:43:02.969Z,75.91
2023-05-02T09:44:02.990Z,104.13
2023-05-02T09:45:02.964Z,85.44
2023-05-02T09:46:03.071Z,83.67
2023-05-02T09:47:03.817Z,77.17
2023-05-02T09:48:03.092Z,64.99
2023-05-02T09:49:02.922Z,72.69
2023-05-02T09:50:02.921Z,82.59
2023-05-02T09:51:02.891Z,82.24
2023-05-02T09:52:02.939Z,70.00
2023-05-02T09:53:02.905Z,64.26
2023-05-02T09:54:02.906Z,52.01
2023-05-02T09:55:02.935Z,33.49
2023-05-02T09:56:02.921Z,24.88
2023-05-02T09:57:02.865Z,37.91
2023-05-02T09:58:02.872Z,57.90
2023-05-02T09:59:02.839Z,49.69
2023-05-02T10:00:02.909Z,46.17
2023-05-02T10:01:02.911Z,38.94
2023-05-02T10:02:03.153Z,26.85
2023-05-02T10:03:02.810Z,36.92
2023-05-02T10:04:02.846Z,62.71
2023-05-02T10:05:03.839Z,93.27
2023-05-02T10:06:02.812Z,114.89
2023-05-02T10:07:02.831Z,113.83
2023-05-02T10:08:02.760Z,105.86
2023-05-02T10:09:02.844Z,49.05
2023-05-02T10:10:03.680Z,34.15
2023-05-02T10:11:02.765Z,46.05
2023-05-02T10:12:02.816Z,79.57
2023-05-02T10:13:02.828Z,91.07
2023-05-02T10:14:02.910Z,82.82
2023-05-02T10:15:03.115Z,73.19
2023-05-02T10:16:03.103Z,93.83
2023-05-02T10:17:03.007Z,125.37
2023-05-02T10:18:03.127Z,130.43
2023-05-02T10:19:03.155Z,150.35
2023-05-02T10:20:03.158Z,149.26
2023-05-02T10:21:03.194Z,108.75
2023-05-02T10:22:03.858Z,95.71
2023-05-02T10:23:03.361Z,39.27
2023-05-02T10:24:03.332Z,29.51
2023-05-02T10:25:03.662Z,31.51
2023-05-02T10:26:03.469Z,40.58
2023-05-02T10:27:03.891Z,40.61
2023-05-02T10:28:03.406Z,63.87
2023-05-02T10:29:03.379Z,80.98
2023-05-02T10:30:03.405Z,68.94
2023-05-02T10:31:03.453Z,44.91
2023-05-02T10:32:04.537Z,22.13
2023-05-02T10:33:03.477Z,0.75
2023-05-02T10:34:03.447Z,0.00
2023-05-02T10:35:03.687Z,5.00
2023-05-02T10:36:03.543Z,11.54
2023-05-02T10:37:03.852Z,24.15
2023-05-02T10:38:03.688Z,5.89
2023-05-02T10:39:03.607Z,0.00
2023-05-02T10:40:03.631Z,0.00
2023-05-02T10:41:03.686Z,4.78
2023-05-02T10:42:03.835Z,0.00
2023-05-02T10:43:03.694Z,2.08
2023-05-02T10:44:03.691Z,13.37
2023-05-02T10:45:03.707Z,27.21
2023-05-02T10:46:04.486Z,29.77
2023-05-02T10:47:04.022Z,31.39
2023-05-02T10:48:04.026Z,25.75
2023-05-02T10:49:03.921Z,6.05
2023-05-02T10:50:04.036Z,5.58
2023-05-02T10:51:03.962Z,5.21
2023-05-02T10:52:04.383Z,2.22
2023-05-02T10:53:04.074Z,14.58
2023-05-02T10:54:04.076Z,24.72
2023-05-02T10:55:04.080Z,41.08
2023-05-02T10:56:04.172Z,41.05
2023-05-02T10:57:04.233Z,37.63
2023-05-02T10:58:04.297Z,38.80
2023-05-02T10:59:04.210Z,46.44
2023-05-02T11:00:04.214Z,48.64
2023-05-02T11:01:04.377Z,63.42
2023-05-02T11:02:06.992Z,74.36
2023-05-02T11:03:04.449Z,66.16
2023-05-02T11:04:04.336Z,60.74
2023-05-02T11:05:04.764Z,68.76
2023-05-02T11:06:04.317Z,77.67
2023-05-02T11:07:04.278Z,62.85
2023-05-02T11:08:04.264Z,61.59
2023-05-02T11:09:04.307Z,47.55
2023-05-02T11:10:04.312Z,37.35
2023-05-02T11:11:04.188Z,49.60
2023-05-02T11:12:04.408Z,63.84
2023-05-02T11:13:04.198Z,49.64
2023-05-02T11:14:04.220Z,45.00
2023-05-02T11:15:04.212Z,46.67
2023-05-02T11:16:04.228Z,45.97
2023-05-02T11:17:04.424Z,42.65
2023-05-02T11:18:04.277Z,35.83
2023-05-02T11:19:04.232Z,32.02
2023-05-02T11:20:04.256Z,40.71
2023-05-02T11:21:04.256Z,35.80
2023-05-02T11:22:04.278Z,26.98
2023-05-02T11:23:04.162Z,25.29
2023-05-02T11:24:04.185Z,34.32
2023-05-02T11:25:04.190Z,48.19
2023-05-02T11:26:05.219Z,20.62
2023-05-02T11:27:04.093Z,30.70
2023-05-02T11:28:04.145Z,11.29
2023-05-02T11:29:04.271Z,21.01
2023-05-02T11:30:04.120Z,30.34
2023-05-02T11:31:04.133Z,60.75
2023-05-02T11:32:04.557Z,45.89
2023-05-02T11:33:04.225Z,44.96
2023-05-02T11:34:04.032Z,31.13
2023-05-02T11:35:04.246Z,41.40
2023-05-02T11:36:04.046Z,46.27
2023-05-02T11:37:04.382Z,24.50
2023-05-02T11:38:04.088Z,22.52
2023-05-02T11:39:04.058Z,28.88
2023-05-02T11:40:04.097Z,50.13
2023-05-02T11:41:04.104Z,68.64
2023-05-02T11:42:04.004Z,86.93
2023-05-02T11:43:04.036Z,94.93
2023-05-02T11:44:04.015Z,98.31
2023-05-02T11:45:04.223Z,97.61
2023-05-02T11:46:04.047Z,87.04
2023-05-02T11:47:04.041Z,92.09
2023-05-02T11:48:04.098Z,99.10
2023-05-02T11:49:05.097Z,82.41
2023-05-02T11:50:04.070Z,88.41
2023-05-02T11:51:04.091Z,90.27
2023-05-02T11:52:04.180Z,93.20
2023-05-02T11:53:04.061Z,87.75
2023-05-02T11:54:04.150Z,77.48
2023-05-02T11:55:04.443Z,66.26
2023-05-02T11:56:04.170Z,73.07
2023-05-02T11:57:04.205Z,65.83
2023-05-02T11:58:04.215Z,77.54
2023-05-02T11:59:04.229Z,81.48
2023-05-02T12:00:04.317Z,75.47
2023-05-02T12:01:04.244Z,81.87
2023-05-02T12:02:04.404Z,91.93
2023-05-02T12:03:04.323Z,78.61
2023-05-02T12:04:04.345Z,66.90
2023-05-02T12:05:04.684Z,66.94
2023-05-02T12:06:04.555Z,72.39
2023-05-02T12:07:04.556Z,83.71
2023-05-02T12:08:04.385Z,69.23
2023-05-02T12:09:04.411Z,92.63
2023-05-02T12:10:04.446Z,99.91
2023-05-02T12:11:04.472Z,114.83
2023-05-02T12:12:04.429Z,124.04
2023-05-02T12:13:04.508Z,114.65
2023-05-02T12:14:04.525Z,121.61
2023-05-02T12:15:04.618Z,132.89
2023-05-02T12:16:04.645Z,125.27
2023-05-02T12:17:04.674Z,120.92
2023-05-02T12:18:04.727Z,124.12
2023-05-02T12:19:04.740Z,125.99
2023-05-02T12:20:04.785Z,123.36
2023-05-02T12:21:04.797Z,126.01
2023-05-02T12:22:04.812Z,134.66
2023-05-02T12:23:04.882Z,140.36
2023-05-02T12:24:04.886Z,138.51
2023-05-02T12:25:05.201Z,138.97
2023-05-02T12:26:04.918Z,129.33
2023-05-02T12:27:04.996Z,127.57
2023-05-02T12:28:05.016Z,127.41
2023-05-02T12:29:05.060Z,133.00
2023-05-02T12:30:05.339Z,135.87
2023-05-02T12:31:05.164Z,135.81
2023-05-02T12:32:05.130Z,138.21
2023-05-02T12:33:05.122Z,132.63
2023-05-02T12:34:05.155Z,130.22
2023-05-02T12:35:05.160Z,130.23
2023-05-02T12:36:05.224Z,137.10
2023-05-02T12:37:05.279Z,137.40
2023-05-02T12:38:05.280Z,144.20
2023-05-02T12:39:05.340Z,138.85
2023-05-02T12:40:05.373Z,151.56
2023-05-02T12:41:05.395Z,140.32